sensor_id;sensor_type;location;lat;lon;timestamp;pressure;altitude;pressure_sealevel;temperature;humidity
15193;BME280;7697;51.630;7.484;2022-09-09T00:00:38;100120.50;;;18.02;86.95
15193;BME280;7697;51.630;7.484;2022-09-09T00:05:45;100111.09;;;17.99;87.64
15193;BME280;7697;51.630;7.484;2022-09-09T00:10:56;100113.19;;;17.92;87.84
15193;BME280;7697;51.630;7.484;2022-09-09T00:16:04;100113.09;;;17.77;88.87
15193;BME280;7697;51.630;7.484;2022-09-09T00:21:13;100109.19;;;17.58;89.56
15193;BME280;7697;51.630;7.484;2022-09-09T00:26:21;100108.03;;;17.49;90.32
15193;BME280;7697;51.630;7.484;2022-09-09T00:31:29;100100.00;;;17.49;90.40
15193;BME280;7697;51.630;7.484;2022-09-09T00:36:32;100102.66;;;17.44;90.40
15193;BME280;7697;51.630;7.484;2022-09-09T00:41:46;100092.94;;;17.38;91.09
15193;BME280;7697;51.630;7.484;2022-09-09T00:46:59;100096.66;;;17.32;91.82
15193;BME280;7697;51.630;7.484;2022-09-09T00:52:19;100086.97;;;17.25;91.92
15193;BME280;7697;51.630;7.484;2022-09-09T00:57:27;100085.91;;;17.27;91.66
15193;BME280;7697;51.630;7.484;2022-09-09T01:02:35;100093.84;;;17.16;91.92
15193;BME280;7697;51.630;7.484;2022-09-09T01:07:44;100091.94;;;17.12;92.16
15193;BME280;7697;51.630;7.484;2022-09-09T01:12:49;100098.19;;;17.22;91.54
15193;BME280;7697;51.630;7.484;2022-09-09T01:17:59;100078.59;;;17.17;91.30
15193;BME280;7697;51.630;7.484;2022-09-09T01:23:27;100088.78;;;17.20;91.17
15193;BME280;7697;51.630;7.484;2022-09-09T01:28:37;100087.94;;;17.14;91.44
15193;BME280;7697;51.630;7.484;2022-09-09T01:33:40;100093.31;;;17.14;91.06
15193;BME280;7697;51.630;7.484;2022-09-09T01:38:41;100098.66;;;17.14;91.13
15193;BME280;7697;51.630;7.484;2022-09-09T01:43:44;100097.53;;;17.10;91.37
15193;BME280;7697;51.630;7.484;2022-09-09T01:48:46;100096.19;;;17.08;91.32
15193;BME280;7697;51.630;7.484;2022-09-09T01:53:48;100087.34;;;17.07;91.03
15193;BME280;7697;51.630;7.484;2022-09-09T01:59:05;100091.38;;;17.10;91.54
15193;BME280;7697;51.630;7.484;2022-09-09T02:04:21;100086.78;;;17.05;91.23
15193;BME280;7697;51.630;7.484;2022-09-09T02:09:26;100087.03;;;17.04;91.52
15193;BME280;7697;51.630;7.484;2022-09-09T02:14:35;100082.47;;;16.99;91.54
15193;BME280;7697;51.630;7.484;2022-09-09T02:19:43;100091.69;;;16.86;91.36
15193;BME280;7697;51.630;7.484;2022-09-09T02:24:50;100091.13;;;16.84;91.49
15193;BME280;7697;51.630;7.484;2022-09-09T02:29:57;100091.72;;;16.92;91.63
15193;BME280;7697;51.630;7.484;2022-09-09T02:35:05;100088.25;;;16.91;92.05
15193;BME280;7697;51.630;7.484;2022-09-09T02:40:11;100088.78;;;16.88;91.76
15193;BME280;7697;51.630;7.484;2022-09-09T02:45:17;100094.56;;;16.80;92.54
15193;BME280;7697;51.630;7.484;2022-09-09T02:50:23;100094.00;;;16.78;92.49
15193;BME280;7697;51.630;7.484;2022-09-09T02:55:35;100095.88;;;16.77;92.14
15193;BME280;7697;51.630;7.484;2022-09-09T03:00:40;100096.66;;;16.73;92.43
15193;BME280;7697;51.630;7.484;2022-09-09T03:05:42;100101.47;;;16.76;92.50
15193;BME280;7697;51.630;7.484;2022-09-09T03:10:44;100092.41;;;16.77;92.51
15193;BME280;7697;51.630;7.484;2022-09-09T03:15:47;100094.31;;;16.81;93.12
15193;BME280;7697;51.630;7.484;2022-09-09T03:20:49;100084.16;;;16.83;93.37
15193;BME280;7697;51.630;7.484;2022-09-09T03:25:51;100086.84;;;16.83;93.29
15193;BME280;7697;51.630;7.484;2022-09-09T03:31:01;100081.81;;;16.87;93.91
15193;BME280;7697;51.630;7.484;2022-09-09T03:36:04;100083.97;;;16.90;93.59
15193;BME280;7697;51.630;7.484;2022-09-09T03:41:05;100081.34;;;16.95;93.41
15193;BME280;7697;51.630;7.484;2022-09-09T03:46:09;100082.13;;;16.91;93.67
15193;BME280;7697;51.630;7.484;2022-09-09T03:51:11;100078.09;;;16.93;93.63
15193;BME280;7697;51.630;7.484;2022-09-09T03:56:12;100075.44;;;16.93;93.90
15193;BME280;7697;51.630;7.484;2022-09-09T04:01:16;100076.81;;;16.96;93.90
15193;BME280;7697;51.630;7.484;2022-09-09T04:06:18;100080.78;;;16.93;94.24
15193;BME280;7697;51.630;7.484;2022-09-09T04:11:21;100080.03;;;16.98;94.20
15193;BME280;7697;51.630;7.484;2022-09-09T04:16:24;100083.28;;;17.00;93.98
15193;BME280;7697;51.630;7.484;2022-09-09T04:21:26;100087.84;;;17.04;93.74
15193;BME280;7697;51.630;7.484;2022-09-09T04:26:27;100091.09;;;17.06;94.11
15193;BME280;7697;51.630;7.484;2022-09-09T04:31:31;100099.69;;;17.08;94.00
15193;BME280;7697;51.630;7.484;2022-09-09T04:36:33;100095.13;;;17.09;94.08
15193;BME280;7697;51.630;7.484;2022-09-09T04:41:34;100094.81;;;17.05;94.33
15193;BME280;7697;51.630;7.484;2022-09-09T04:46:37;100094.25;;;17.03;94.32
15193;BME280;7697;51.630;7.484;2022-09-09T04:51:39;100094.81;;;17.05;94.11
15193;BME280;7697;51.630;7.484;2022-09-09T04:56:41;100090.56;;;17.09;94.43
15193;BME280;7697;51.630;7.484;2022-09-09T05:01:45;100092.69;;;17.07;94.31
15193;BME280;7697;51.630;7.484;2022-09-09T05:06:46;100083.88;;;17.07;94.45
15193;BME280;7697;51.630;7.484;2022-09-09T05:11:48;100087.34;;;17.07;94.24
15193;BME280;7697;51.630;7.484;2022-09-09T05:16:52;100090.03;;;17.07;94.18
15193;BME280;7697;51.630;7.484;2022-09-09T05:21:53;100099.16;;;17.11;94.33
15193;BME280;7697;51.630;7.484;2022-09-09T05:26:55;100099.72;;;17.13;94.15
15193;BME280;7697;51.630;7.484;2022-09-09T05:32:02;100095.97;;;17.14;94.43
15193;BME280;7697;51.630;7.484;2022-09-09T05:37:03;100086.88;;;17.15;94.32
15193;BME280;7697;51.630;7.484;2022-09-09T05:42:05;100087.72;;;17.21;94.35
15193;BME280;7697;51.630;7.484;2022-09-09T05:47:08;100084.81;;;17.22;94.20
15193;BME280;7697;51.630;7.484;2022-09-09T05:52:10;100093.31;;;17.19;94.40
15193;BME280;7697;51.630;7.484;2022-09-09T05:57:11;100093.88;;;17.21;94.31
15193;BME280;7697;51.630;7.484;2022-09-09T06:02:14;100079.44;;;17.22;94.55
15193;BME280;7697;51.630;7.484;2022-09-09T06:07:16;100090.19;;;17.27;94.46
15193;BME280;7697;51.630;7.484;2022-09-09T06:12:18;100091.31;;;17.32;94.28
15193;BME280;7697;51.630;7.484;2022-09-09T06:17:22;100088.94;;;17.35;94.54
15193;BME280;7697;51.630;7.484;2022-09-09T06:22:24;100093.75;;;17.38;94.90
15193;BME280;7697;51.630;7.484;2022-09-09T06:27:27;100098.34;;;17.43;94.94
15193;BME280;7697;51.630;7.484;2022-09-09T06:32:30;100096.28;;;17.50;95.07
15193;BME280;7697;51.630;7.484;2022-09-09T06:37:33;100098.97;;;17.55;95.43
15193;BME280;7697;51.630;7.484;2022-09-09T06:42:34;100104.97;;;17.62;95.25
15193;BME280;7697;51.630;7.484;2022-09-09T06:47:37;100095.91;;;17.73;95.09
15193;BME280;7697;51.630;7.484;2022-09-09T06:52:39;100111.78;;;17.80;94.93
15193;BME280;7697;51.630;7.484;2022-09-09T06:57:41;100111.81;;;17.90;94.40
15193;BME280;7697;51.630;7.484;2022-09-09T07:02:44;100106.78;;;17.98;94.21
15193;BME280;7697;51.630;7.484;2022-09-09T07:07:45;100108.44;;;18.05;94.16
15193;BME280;7697;51.630;7.484;2022-09-09T07:12:50;100109.56;;;18.14;94.01
15193;BME280;7697;51.630;7.484;2022-09-09T07:17:53;100117.66;;;18.24;93.95
15193;BME280;7697;51.630;7.484;2022-09-09T07:22:55;100120.53;;;18.59;93.24
15193;BME280;7697;51.630;7.484;2022-09-09T07:27:58;100114.13;;;18.81;92.13
15193;BME280;7697;51.630;7.484;2022-09-09T07:33:01;100131.44;;;18.53;92.95
15193;BME280;7697;51.630;7.484;2022-09-09T07:38:03;100128.50;;;18.54;92.57
15193;BME280;7697;51.630;7.484;2022-09-09T07:43:06;100127.81;;;18.74;91.91
15193;BME280;7697;51.630;7.484;2022-09-09T07:48:10;100119.78;;;18.89;90.18
15193;BME280;7697;51.630;7.484;2022-09-09T07:53:12;100132.44;;;19.09;88.80
15193;BME280;7697;51.630;7.484;2022-09-09T07:58:13;100146.22;;;19.73;86.49
15193;BME280;7697;51.630;7.484;2022-09-09T08:03:16;100130.06;;;19.83;86.00
15193;BME280;7697;51.630;7.484;2022-09-09T08:08:18;100148.03;;;20.08;84.42
15193;BME280;7697;51.630;7.484;2022-09-09T08:13:20;100144.69;;;20.52;81.63
15193;BME280;7697;51.630;7.484;2022-09-09T08:18:23;100140.97;;;20.48;82.55
15193;BME280;7697;51.630;7.484;2022-09-09T08:23:24;100143.03;;;20.66;80.63
15193;BME280;7697;51.630;7.484;2022-09-09T08:28:26;100139.63;;;20.94;78.68
15193;BME280;7697;51.630;7.484;2022-09-09T08:33:29;100139.50;;;21.15;76.83
15193;BME280;7697;51.630;7.484;2022-09-09T08:38:31;100139.50;;;21.15;75.99
15193;BME280;7697;51.630;7.484;2022-09-09T08:43:33;100142.75;;;21.56;76.56
15193;BME280;7697;51.630;7.484;2022-09-09T08:48:47;100154.34;;;21.85;73.09
15193;BME280;7697;51.630;7.484;2022-09-09T08:53:53;100137.97;;;21.77;73.63
15193;BME280;7697;51.630;7.484;2022-09-09T08:58:56;100140.38;;;21.78;73.43
15193;BME280;7697;51.630;7.484;2022-09-09T09:04:10;100161.41;;;21.81;71.09
15193;BME280;7697;51.630;7.484;2022-09-09T09:09:21;100156.94;;;21.66;70.85
15193;BME280;7697;51.630;7.484;2022-09-09T09:14:25;100152.13;;;21.63;71.22
15193;BME280;7697;51.630;7.484;2022-09-09T09:19:30;100161.13;;;21.83;69.79
15193;BME280;7697;51.630;7.484;2022-09-09T09:24:40;100159.34;;;21.97;68.71
15193;BME280;7697;51.630;7.484;2022-09-09T09:29:47;100156.25;;;22.37;69.25
15193;BME280;7697;51.630;7.484;2022-09-09T09:34:55;100158.91;;;22.42;67.64
15193;BME280;7697;51.630;7.484;2022-09-09T09:40:08;100146.50;;;22.41;66.79
15193;BME280;7697;51.630;7.484;2022-09-09T09:45:16;100147.59;;;23.39;64.39
15193;BME280;7697;51.630;7.484;2022-09-09T09:50:23;100134.31;;;23.75;62.55
15193;BME280;7697;51.630;7.484;2022-09-09T09:55:25;100146.22;;;23.74;61.50
15193;BME280;7697;51.630;7.484;2022-09-09T10:00:27;100152.44;;;23.24;62.50
15193;BME280;7697;51.630;7.484;2022-09-09T10:05:31;100145.94;;;23.06;63.87
15193;BME280;7697;51.630;7.484;2022-09-09T10:10:45;100152.75;;;23.03;62.84
15193;BME280;7697;51.630;7.484;2022-09-09T10:15:59;100143.72;;;23.45;61.87
15193;BME280;7697;51.630;7.484;2022-09-09T10:21:13;100143.19;;;23.94;58.97
15193;BME280;7697;51.630;7.484;2022-09-09T10:26:31;100146.88;;;23.99;58.20
15193;BME280;7697;51.630;7.484;2022-09-09T10:31:42;100147.84;;;23.75;60.33
15193;BME280;7697;51.630;7.484;2022-09-09T10:36:51;100144.78;;;23.63;60.02
15193;BME280;7697;51.630;7.484;2022-09-09T10:41:59;100147.72;;;24.26;56.98
15193;BME280;7697;51.630;7.484;2022-09-09T10:47:21;100144.81;;;24.78;56.17
15193;BME280;7697;51.630;7.484;2022-09-09T10:52:32;100125.88;;;25.14;54.77
15193;BME280;7697;51.630;7.484;2022-09-09T10:57:41;100132.97;;;25.68;53.23
15193;BME280;7697;51.630;7.484;2022-09-09T11:02:45;100132.53;;;25.74;52.51
15193;BME280;7697;51.630;7.484;2022-09-09T11:07:55;100136.03;;;26.14;50.65
15193;BME280;7697;51.630;7.484;2022-09-09T11:13:02;100134.41;;;26.36;50.88
15193;BME280;7697;51.630;7.484;2022-09-09T11:18:06;100133.03;;;26.64;49.37
15193;BME280;7697;51.630;7.484;2022-09-09T11:23:13;100125.69;;;26.65;48.55
15193;BME280;7697;51.630;7.484;2022-09-09T11:28:29;100139.91;;;26.70;47.89
15193;BME280;7697;51.630;7.484;2022-09-09T11:33:46;100131.69;;;27.01;47.20
15193;BME280;7697;51.630;7.484;2022-09-09T11:38:57;100130.88;;;27.18;45.74
15193;BME280;7697;51.630;7.484;2022-09-09T11:44:10;100114.50;;;26.66;46.70
15193;BME280;7697;51.630;7.484;2022-09-09T11:49:26;100119.59;;;26.11;47.10
15193;BME280;7697;51.630;7.484;2022-09-09T11:54:32;100119.75;;;25.75;48.86
15193;BME280;7697;51.630;7.484;2022-09-09T11:59:36;100109.06;;;25.78;50.62
15193;BME280;7697;51.630;7.484;2022-09-09T12:04:39;100108.13;;;26.23;48.82
15193;BME280;7697;51.630;7.484;2022-09-09T12:09:48;100116.06;;;26.59;47.41
15193;BME280;7697;51.630;7.484;2022-09-09T12:15:01;100111.03;;;26.26;47.75
15193;BME280;7697;51.630;7.484;2022-09-09T12:20:11;100104.72;;;26.08;50.24
15193;BME280;7697;51.630;7.484;2022-09-09T12:25:22;100119.00;;;25.83;49.52
15193;BME280;7697;51.630;7.484;2022-09-09T12:30:31;100113.84;;;25.28;50.30
15193;BME280;7697;51.630;7.484;2022-09-09T12:35:34;100120.59;;;24.81;50.88
15193;BME280;7697;51.630;7.484;2022-09-09T12:40:40;100139.91;;;24.52;52.44
15193;BME280;7697;51.630;7.484;2022-09-09T12:45:42;100124.28;;;24.22;52.42
15193;BME280;7697;51.630;7.484;2022-09-09T12:50:44;100135.03;;;23.81;54.64
15193;BME280;7697;51.630;7.484;2022-09-09T12:55:51;100136.16;;;23.80;55.05
15193;BME280;7697;51.630;7.484;2022-09-09T13:00:55;100140.66;;;23.84;56.14
15193;BME280;7697;51.630;7.484;2022-09-09T13:05:58;100142.69;;;24.06;57.50
15193;BME280;7697;51.630;7.484;2022-09-09T13:11:14;100131.66;;;24.03;57.79
15193;BME280;7697;51.630;7.484;2022-09-09T13:16:20;100127.72;;;23.81;58.52
15193;BME280;7697;51.630;7.484;2022-09-09T13:21:31;100125.97;;;23.58;59.53
15193;BME280;7697;51.630;7.484;2022-09-09T13:26:36;100118.88;;;23.43;61.31
15193;BME280;7697;51.630;7.484;2022-09-09T13:31:40;100115.03;;;23.31;62.23
15193;BME280;7697;51.630;7.484;2022-09-09T13:36:42;100113.88;;;23.69;60.81
15193;BME280;7697;51.630;7.484;2022-09-09T13:41:50;100123.00;;;24.33;59.59
15193;BME280;7697;51.630;7.484;2022-09-09T13:47:00;100115.19;;;24.95;57.53
15193;BME280;7697;51.630;7.484;2022-09-09T13:52:04;100112.72;;;25.07;55.83
15193;BME280;7697;51.630;7.484;2022-09-09T13:57:15;100115.59;;;24.75;56.55
15193;BME280;7697;51.630;7.484;2022-09-09T14:02:18;100113.34;;;24.41;57.39
15193;BME280;7697;51.630;7.484;2022-09-09T14:07:21;100116.97;;;24.22;58.05
15193;BME280;7697;51.630;7.484;2022-09-09T14:12:25;100117.09;;;23.99;58.08
15193;BME280;7697;51.630;7.484;2022-09-09T14:17:26;100123.06;;;24.28;58.23
15193;BME280;7697;51.630;7.484;2022-09-09T14:22:31;100130.59;;;23.71;59.53
15193;BME280;7697;51.630;7.484;2022-09-09T14:27:34;100146.66;;;23.81;60.71
15193;BME280;7697;51.630;7.484;2022-09-09T14:32:35;100142.06;;;22.93;64.92
15193;BME280;7697;51.630;7.484;2022-09-09T14:37:37;100129.69;;;22.68;66.70
15193;BME280;7697;51.630;7.484;2022-09-09T14:42:41;100116.03;;;22.60;68.43
15193;BME280;7697;51.630;7.484;2022-09-09T14:47:42;100113.91;;;22.57;69.15
15193;BME280;7697;51.630;7.484;2022-09-09T14:52:44;100114.75;;;22.76;70.16
15193;BME280;7697;51.630;7.484;2022-09-09T14:57:47;100124.91;;;23.03;68.97
15193;BME280;7697;51.630;7.484;2022-09-09T15:02:51;100100.16;;;23.14;66.51
15193;BME280;7697;51.630;7.484;2022-09-09T15:07:53;100106.13;;;23.11;66.11
15193;BME280;7697;51.630;7.484;2022-09-09T15:12:56;100106.50;;;23.05;66.75
15193;BME280;7697;51.630;7.484;2022-09-09T15:17:58;100107.91;;;23.02;66.10
15193;BME280;7697;51.630;7.484;2022-09-09T15:22:59;100112.72;;;22.87;67.24
15193;BME280;7697;51.630;7.484;2022-09-09T15:28:02;100104.66;;;22.63;68.59
15193;BME280;7697;51.630;7.484;2022-09-09T15:33:07;100112.13;;;22.47;68.60
15193;BME280;7697;51.630;7.484;2022-09-09T15:38:09;100107.00;;;22.27;69.18
15193;BME280;7697;51.630;7.484;2022-09-09T15:43:14;100107.50;;;22.05;69.81
15193;BME280;7697;51.630;7.484;2022-09-09T15:48:16;100148.63;;;21.92;72.25
15193;BME280;7697;51.630;7.484;2022-09-09T15:53:19;100173.63;;;21.34;79.05
15193;BME280;7697;51.630;7.484;2022-09-09T15:58:22;100182.63;;;20.50;82.86
15193;BME280;7697;51.630;7.484;2022-09-09T16:03:24;100179.75;;;20.06;82.80
15193;BME280;7697;51.630;7.484;2022-09-09T16:08:31;100176.03;;;19.82;82.18
15193;BME280;7697;51.630;7.484;2022-09-09T16:13:35;100169.59;;;19.58;83.63
15193;BME280;7697;51.630;7.484;2022-09-09T16:18:39;100167.41;;;19.29;83.71
15193;BME280;7697;51.630;7.484;2022-09-09T16:23:41;100159.31;;;19.19;83.57
15193;BME280;7697;51.630;7.484;2022-09-09T16:28:44;100152.06;;;19.20;83.84
15193;BME280;7697;51.630;7.484;2022-09-09T16:33:48;100155.56;;;19.35;83.74
15193;BME280;7697;51.630;7.484;2022-09-09T16:38:52;100153.44;;;19.32;83.35
15193;BME280;7697;51.630;7.484;2022-09-09T16:43:57;100162.03;;;19.29;84.79
15193;BME280;7697;51.630;7.484;2022-09-09T16:49:00;100150.44;;;19.19;85.52
15193;BME280;7697;51.630;7.484;2022-09-09T16:54:04;100148.03;;;19.27;85.20
15193;BME280;7697;51.630;7.484;2022-09-09T16:59:10;100151.81;;;19.36;85.06
15193;BME280;7697;51.630;7.484;2022-09-09T17:04:13;100152.91;;;19.30;85.88
15193;BME280;7697;51.630;7.484;2022-09-09T17:09:21;100147.78;;;19.19;86.48
15193;BME280;7697;51.630;7.484;2022-09-09T17:14:24;100168.41;;;19.03;87.22
15193;BME280;7697;51.630;7.484;2022-09-09T17:19:26;100160.84;;;18.90;87.76
15193;BME280;7697;51.630;7.484;2022-09-09T17:24:28;100159.75;;;18.81;88.05
15193;BME280;7697;51.630;7.484;2022-09-09T17:29:31;100148.22;;;18.75;88.44
15193;BME280;7697;51.630;7.484;2022-09-09T17:34:36;100146.81;;;18.62;88.49
15193;BME280;7697;51.630;7.484;2022-09-09T17:39:38;100156.13;;;18.55;88.75
15193;BME280;7697;51.630;7.484;2022-09-09T17:44:41;100156.94;;;18.55;88.54
15193;BME280;7697;51.630;7.484;2022-09-09T17:49:43;100154.78;;;18.52;88.67
15193;BME280;7697;51.630;7.484;2022-09-09T17:54:44;100154.78;;;18.47;89.18
15193;BME280;7697;51.630;7.484;2022-09-09T17:59:48;100156.09;;;18.45;89.19
15193;BME280;7697;51.630;7.484;2022-09-09T18:04:49;100157.94;;;18.34;90.43
15193;BME280;7697;51.630;7.484;2022-09-09T18:09:51;100165.31;;;18.12;91.95
15193;BME280;7697;51.630;7.484;2022-09-09T18:14:54;100177.03;;;18.00;91.99
15193;BME280;7697;51.630;7.484;2022-09-09T18:19:56;100172.22;;;18.08;91.78
15193;BME280;7697;51.630;7.484;2022-09-09T18:24:57;100171.22;;;18.14;91.76
15193;BME280;7697;51.630;7.484;2022-09-09T18:30:00;100178.69;;;18.07;92.39
15193;BME280;7697;51.630;7.484;2022-09-09T18:35:02;100186.97;;;18.05;92.95
15193;BME280;7697;51.630;7.484;2022-09-09T18:40:05;100186.69;;;18.02;93.45
15193;BME280;7697;51.630;7.484;2022-09-09T18:45:08;100184.56;;;18.09;93.00
15193;BME280;7697;51.630;7.484;2022-09-09T18:50:10;100179.50;;;18.12;92.68
15193;BME280;7697;51.630;7.484;2022-09-09T18:55:11;100184.56;;;18.04;93.55
15193;BME280;7697;51.630;7.484;2022-09-09T19:00:14;100184.00;;;18.02;94.36
15193;BME280;7697;51.630;7.484;2022-09-09T19:05:16;100193.91;;;18.01;94.29
15193;BME280;7697;51.630;7.484;2022-09-09T19:10:18;100190.66;;;17.99;93.82
15193;BME280;7697;51.630;7.484;2022-09-09T19:15:21;100198.47;;;18.00;94.25
15193;BME280;7697;51.630;7.484;2022-09-09T19:20:24;100208.09;;;17.96;94.18
15193;BME280;7697;51.630;7.484;2022-09-09T19:25:25;100212.91;;;17.99;94.13
15193;BME280;7697;51.630;7.484;2022-09-09T19:30:28;100205.41;;;17.96;93.69
15193;BME280;7697;51.630;7.484;2022-09-09T19:35:30;100199.72;;;17.88;94.05
15193;BME280;7697;51.630;7.484;2022-09-09T19:40:34;100210.63;;;17.81;94.31
15193;BME280;7697;51.630;7.484;2022-09-09T19:45:37;100211.41;;;17.77;94.17
15193;BME280;7697;51.630;7.484;2022-09-09T19:50:38;100216.22;;;17.75;94.32
15193;BME280;7697;51.630;7.484;2022-09-09T19:55:40;100213.78;;;17.73;94.53
15193;BME280;7697;51.630;7.484;2022-09-09T20:00:43;100217.84;;;17.76;94.34
15193;BME280;7697;51.630;7.484;2022-09-09T20:05:45;100229.34;;;17.76;93.92
15193;BME280;7697;51.630;7.484;2022-09-09T20:10:52;100233.94;;;17.81;93.74
15193;BME280;7697;51.630;7.484;2022-09-09T20:16:00;100230.19;;;17.82;93.44
15193;BME280;7697;51.630;7.484;2022-09-09T20:21:04;100232.88;;;17.82;93.59
15193;BME280;7697;51.630;7.484;2022-09-09T20:26:08;100234.22;;;17.79;93.88
15193;BME280;7697;51.630;7.484;2022-09-09T20:31:17;100240.06;;;17.76;93.68
15193;BME280;7697;51.630;7.484;2022-09-09T20:36:20;100242.75;;;17.76;93.83
15193;BME280;7697;51.630;7.484;2022-09-09T20:41:23;100248.59;;;17.73;94.06
15193;BME280;7697;51.630;7.484;2022-09-09T20:46:30;100248.06;;;17.71;94.24
15193;BME280;7697;51.630;7.484;2022-09-09T20:51:34;100248.56;;;17.68;94.42
15193;BME280;7697;51.630;7.484;2022-09-09T20:56:38;100237.31;;;17.66;94.84
15193;BME280;7697;51.630;7.484;2022-09-09T21:01:42;100239.41;;;17.64;94.45
15193;BME280;7697;51.630;7.484;2022-09-09T21:06:47;100242.03;;;17.59;94.57
15193;BME280;7697;51.630;7.484;2022-09-09T21:11:50;100236.09;;;17.57;94.58
15193;BME280;7697;51.630;7.484;2022-09-09T21:16:54;100239.28;;;17.54;94.71
15193;BME280;7697;51.630;7.484;2022-09-09T21:21:56;100243.78;;;17.48;95.12
15193;BME280;7697;51.630;7.484;2022-09-09T21:26:58;100250.16;;;17.42;95.42
15193;BME280;7697;51.630;7.484;2022-09-09T21:32:01;100252.53;;;17.39;95.19
15193;BME280;7697;51.630;7.484;2022-09-09T21:37:03;100246.16;;;17.45;94.90
15193;BME280;7697;51.630;7.484;2022-09-09T21:42:05;100250.16;;;17.42;94.69
15193;BME280;7697;51.630;7.484;2022-09-09T21:47:08;100254.75;;;17.47;94.52
15193;BME280;7697;51.630;7.484;2022-09-09T21:52:11;100258.44;;;17.41;94.64
15193;BME280;7697;51.630;7.484;2022-09-09T21:57:12;100265.91;;;17.39;95.01
15193;BME280;7697;51.630;7.484;2022-09-09T22:02:15;100269.41;;;17.39;95.24
15193;BME280;7697;51.630;7.484;2022-09-09T22:07:19;100268.34;;;17.40;95.66
15193;BME280;7697;51.630;7.484;2022-09-09T22:12:21;100259.50;;;17.40;95.55
15193;BME280;7697;51.630;7.484;2022-09-09T22:17:24;100268.09;;;17.42;95.63
15193;BME280;7697;51.630;7.484;2022-09-09T22:22:25;100272.44;;;17.48;94.92
15193;BME280;7697;51.630;7.484;2022-09-09T22:27:27;100263.09;;;17.50;95.04
15193;BME280;7697;51.630;7.484;2022-09-09T22:32:30;100264.47;;;17.53;95.14
15193;BME280;7697;51.630;7.484;2022-09-09T22:37:32;100263.38;;;17.54;95.00
15193;BME280;7697;51.630;7.484;2022-09-09T22:42:34;100267.09;;;17.48;95.71
15193;BME280;7697;51.630;7.484;2022-09-09T22:47:37;100258.00;;;17.49;95.34
15193;BME280;7697;51.630;7.484;2022-09-09T22:52:41;100253.94;;;17.46;95.45
15193;BME280;7697;51.630;7.484;2022-09-09T22:57:43;100248.34;;;17.48;95.23
15193;BME280;7697;51.630;7.484;2022-09-09T23:02:46;100255.56;;;17.47;95.26
15193;BME280;7697;51.630;7.484;2022-09-09T23:07:50;100265.78;;;17.50;95.14
15193;BME280;7697;51.630;7.484;2022-09-09T23:12:52;100270.00;;;17.46;95.16
15193;BME280;7697;51.630;7.484;2022-09-09T23:17:57;100275.06;;;17.43;95.23
15193;BME280;7697;51.630;7.484;2022-09-09T23:22:59;100272.84;;;17.35;95.43
15193;BME280;7697;51.630;7.484;2022-09-09T23:28:00;100270.16;;;17.35;95.68
15193;BME280;7697;51.630;7.484;2022-09-09T23:33:04;100269.38;;;17.34;95.35
15193;BME280;7697;51.630;7.484;2022-09-09T23:38:05;100275.22;;;17.31;95.50
15193;BME280;7697;51.630;7.484;2022-09-09T23:43:07;100272.78;;;17.30;95.41
15193;BME280;7697;51.630;7.484;2022-09-09T23:48:10;100284.78;;;17.27;95.58
15193;BME280;7697;51.630;7.484;2022-09-09T23:53:12;100274.28;;;17.20;95.22
15193;BME280;7697;51.630;7.484;2022-09-09T23:58:14;100280.16;;;17.17;95.46
